Time;durP1;ratioP1;P1;durP2;ratioP2;P2;SDS_P1;SDS_P2;PMS_P1;PMS_P2;Temp;Humidity;BMP_temperature;BMP_pressure;BME280_temperature;BME280_humidity;BME280_pressure;Samples;Min_cycle;Max_cycle;Signal;HPM_P1;HPM_P2
2021/03/01 00:00:13;;;;;;;5.05;3.58;;;;;;;1.07;84.14;100154.67;1731815;83;21154;-64
2021/03/01 00:02:40;;;;;;;5.15;3.40;;;;;;;1.04;84.17;100156.41;1721600;81;21371;-64
2021/03/01 00:05:10;;;;;;;5.62;3.15;;;;;;;0.95;84.41;100159.80;1754623;81;21195;-64
2021/03/01 00:07:37;;;;;;;6.37;4.15;;;;;;;1.02;84.26;100162.00;1728385;82;21211;-64
2021/03/01 00:10:06;;;;;;;5.50;3.40;;;;;;;1.04;84.18;100162.61;1719742;82;21331;-63
2021/03/01 00:12:34;;;;;;;4.33;3.22;;;;;;;0.97;84.37;100159.07;1704467;82;21191;-64
2021/03/01 00:15:05;;;;;;;5.08;3.20;;;;;;;0.97;84.32;100161.75;1740974;82;21177;-64
2021/03/01 00:17:33;;;;;;;6.60;3.35;;;;;;;1.06;84.13;100164.59;1682612;84;21184;-64
2021/03/01 00:20:03;;;;;;;4.37;2.87;;;;;;;1.05;84.35;100161.59;1725391;82;21259;-65
2021/03/01 00:22:30;;;;;;;3.77;2.95;;;;;;;0.99;84.41;100154.36;1719184;82;21655;-64
2021/03/01 00:24:58;;;;;;;5.17;3.15;;;;;;;1.04;84.26;100165.80;1691305;83;21159;-63
2021/03/01 00:27:25;;;;;;;5.33;2.95;;;;;;;1.08;84.03;100170.57;1724416;83;21214;-63
2021/03/01 00:29:52;;;;;;;5.08;3.52;;;;;;;1.04;84.13;100161.77;1727013;83;21193;-64
2021/03/01 00:32:20;;;;;;;4.75;3.02;;;;;;;0.98;84.39;100152.69;1715511;82;21218;-64
2021/03/01 00:34:47;;;;;;;3.95;2.60;;;;;;;1.02;84.27;100159.31;1720812;81;21174;-64
2021/03/01 00:37:15;;;;;;;5.50;3.22;;;;;;;1.13;83.92;100172.15;1717627;82;21683;-64
2021/03/01 00:39:43;;;;;;;5.92;3.77;;;;;;;1.09;84.02;100174.91;1724007;82;21314;-64
2021/03/01 00:42:10;;;;;;;4.90;3.10;;;;;;;1.02;84.23;100178.59;1731106;81;21222;-63
2021/03/01 00:44:38;;;;;;;6.40;3.27;;;;;;;1.08;84.02;100181.80;1700411;83;21148;-64
2021/03/01 00:47:06;;;;;;;4.70;3.45;;;;;;;1.10;83.86;100182.45;1702927;83;21165;-64
2021/03/01 00:49:33;;;;;;;5.42;3.90;;;;;;;1.07;84.13;100184.16;1712283;83;21648;-63
2021/03/01 00:52:01;;;;;;;5.55;3.75;;;;;;;1.03;84.31;100181.59;1710960;83;21760;-65
2021/03/01 00:54:29;;;;;;;5.58;3.80;;;;;;;1.04;84.11;100178.70;1682821;84;21217;-64
2021/03/01 00:56:56;;;;;;;5.37;3.62;;;;;;;1.10;83.97;100187.27;1733209;83;21579;-64
2021/03/01 00:59:26;;;;;;;7.03;4.22;;;;;;;1.07;84.08;100194.38;1707581;83;21200;-62
2021/03/01 01:01:58;;;;;;;5.65;3.67;;;;;;;0.99;84.16;100203.95;1743240;80;21174;-64
2021/03/01 01:04:26;;;;;;;5.42;3.50;;;;;;;1.01;84.10;100213.95;1738020;81;21184;-64
2021/03/01 01:06:56;;;;;;;5.78;4.35;;;;;;;1.09;83.85;100225.86;1750471;81;21176;-64
2021/03/01 01:09:23;;;;;;;7.55;4.90;;;;;;;0.99;84.01;100233.44;1733781;81;21156;-63
2021/03/01 01:11:50;;;;;;;7.12;4.30;;;;;;;0.91;84.21;100246.48;1731406;82;21245;-63
2021/03/01 01:14:18;;;;;;;5.40;3.58;;;;;;;0.99;83.96;100248.19;1743207;81;21290;-62
2021/03/01 01:16:46;;;;;;;8.53;4.20;;;;;;;1.02;83.84;100244.27;1760799;80;21320;-62
2021/03/01 01:19:13;;;;;;;7.40;4.33;;;;;;;0.87;84.21;100248.41;1742157;81;21195;-62
2021/03/01 01:21:42;;;;;;;6.60;4.00;;;;;;;0.88;84.22;100254.92;1729472;83;21211;-63
2021/03/01 01:24:09;;;;;;;6.47;4.42;;;;;;;0.92;84.13;100256.16;1704315;83;21188;-63
2021/03/01 01:26:36;;;;;;;6.20;4.17;;;;;;;0.84;84.33;100264.37;1724161;82;21171;-63
2021/03/01 01:29:05;;;;;;;5.35;3.50;;;;;;;0.89;84.21;100270.47;1714406;82;21191;-62
2021/03/01 01:31:32;;;;;;;5.53;3.47;;;;;;;0.97;83.85;100288.58;1714399;83;21200;-62
2021/03/01 01:34:00;;;;;;;4.33;3.00;;;;;;;0.87;84.05;100299.33;1725388;82;21346;-63
2021/03/01 01:36:28;;;;;;;4.87;3.00;;;;;;;0.72;84.50;100289.22;1736125;81;21243;-63
2021/03/01 01:38:55;;;;;;;5.95;3.30;;;;;;;0.80;84.20;100297.95;1731823;82;21597;-63
2021/03/01 01:41:22;;;;;;;4.67;3.22;;;;;;;0.73;84.32;100294.90;1729065;82;21705;-63
2021/03/01 01:43:59;;;;;;;5.62;3.25;;;;;;;0.83;84.12;100294.87;1809860;79;23013;-62
2021/03/01 01:46:26;;;;;;;5.20;3.12;;;;;;;0.84;84.04;100309.11;1719987;83;21162;-63
2021/03/01 01:48:56;;;;;;;6.12;3.17;;;;;;;0.76;84.21;100308.73;1758909;81;21153;-63
2021/03/01 01:51:24;;;;;;;5.50;2.72;;;;;;;0.76;84.12;100307.40;1728513;83;21627;-62
2021/03/01 01:53:51;;;;;;;5.97;3.10;;;;;;;0.83;83.64;100312.80;1687326;84;21165;-62
2021/03/01 01:56:18;;;;;;;6.97;3.50;;;;;;;0.86;83.63;100320.45;1700357;83;21192;-63
2021/03/01 01:58:45;;;;;;;5.65;3.10;;;;;;;0.77;83.74;100318.45;1706652;83;21179;-63
2021/03/01 02:01:13;;;;;;;5.67;3.10;;;;;;;0.74;83.82;100317.50;1702739;84;21536;-65
2021/03/01 02:03:49;;;;;;;4.42;2.65;;;;;;;0.84;83.52;100321.17;1702799;84;21771;-64
2021/03/01 02:06:43;;;;;;;5.85;3.10;;;;;;;0.81;83.38;100317.55;1740565;81;21204;-64
2021/03/01 02:09:37;;;;;;;5.83;3.05;;;;;;;0.74;83.59;100315.33;1754449;81;21303;-64
2021/03/01 02:12:16;;;;;;;3.85;2.30;;;;;;;0.73;83.83;100316.34;1714946;83;21200;-60
2021/03/01 02:14:55;;;;;;;4.05;2.47;;;;;;;0.78;83.44;100323.30;1726514;82;21118;-64
2021/03/01 02:17:23;;;;;;;4.05;2.60;;;;;;;0.81;83.35;100321.56;1710968;84;21333;-62
2021/03/01 02:19:50;;;;;;;4.92;3.02;;;;;;;0.77;83.52;100326.48;1710881;84;21292;-63
2021/03/01 02:22:18;;;;;;;4.35;2.50;;;;;;;0.73;83.78;100333.25;1724990;82;21189;-62
2021/03/01 02:24:56;;;;;;;3.65;2.30;;;;;;;0.80;83.54;100338.16;1740439;82;21168;-62
2021/03/01 02:27:30;;;;;;;4.03;2.40;;;;;;;0.91;83.16;100329.58;1717752;83;21203;-63
2021/03/01 02:30:24;;;;;;;3.83;2.65;;;;;;;0.88;83.19;100330.48;1702720;84;21162;-62
2021/03/01 02:33:04;;;;;;;3.60;2.33;;;;;;;0.80;83.40;100326.59;1725600;83;21205;-62
2021/03/01 02:35:33;;;;;;;3.30;2.08;;;;;;;0.78;83.45;100336.16;1731489;83;21162;-62
2021/03/01 02:38:02;;;;;;;4.80;2.60;;;;;;;0.92;83.13;100340.60;1729147;83;21141;-62
2021/03/01 02:40:29;;;;;;;4.97;2.52;;;;;;;0.92;83.24;100337.92;1728818;83;21173;-62
2021/03/01 02:42:57;;;;;;;4.20;2.40;;;;;;;0.87;83.36;100339.54;1722949;82;21312;-63
2021/03/01 02:45:25;;;;;;;5.80;2.30;;;;;;;0.88;83.23;100358.13;1719812;82;21158;-62
2021/03/01 02:47:53;;;;;;;4.15;2.02;;;;;;;0.96;82.85;100360.64;1720527;83;21206;-63
2021/03/01 02:50:21;;;;;;;5.72;3.12;;;;;;;0.91;83.00;100363.60;1698208;84;21646;-62
2021/03/01 02:52:48;;;;;;;5.37;2.95;;;;;;;0.80;83.27;100367.64;1742120;82;21168;-62
2021/03/01 02:55:16;;;;;;;4.95;2.50;;;;;;;0.84;83.27;100368.91;1747320;81;21125;-62
2021/03/01 02:57:43;;;;;;;5.15;2.47;;;;;;;0.92;83.01;100381.35;1683563;83;21343;-63
2021/03/01 03:00:11;;;;;;;5.42;3.00;;;;;;;0.81;83.27;100387.23;1721665;82;21175;-62
2021/03/01 03:02:41;;;;;;;4.25;2.77;;;;;;;0.73;83.52;100387.36;1751086;82;21203;-63
2021/03/01 03:05:12;;;;;;;3.80;2.40;;;;;;;0.80;83.37;100396.28;1751196;80;21577;-62
2021/03/01 03:07:40;;;;;;;7.45;3.45;;;;;;;0.76;83.54;100397.69;1752236;80;21602;-62
2021/03/01 03:10:09;;;;;;;4.10;2.83;;;;;;;0.70;83.71;100402.48;1671336;83;21246;-63
2021/03/01 03:12:38;;;;;;;4.70;3.00;;;;;;;0.77;83.65;100408.23;1756630;80;21227;-62
2021/03/01 03:15:08;;;;;;;4.22;3.27;;;;;;;0.81;83.45;100418.05;1753504;82;21153;-62
2021/03/01 03:17:35;;;;;;;5.28;3.35;;;;;;;0.74;83.61;100415.82;1753490;82;21189;-63
2021/03/01 03:20:08;;;;;;;5.92;3.45;;;;;;;0.71;83.68;100418.34;1711008;82;21292;-62
2021/03/01 03:22:36;;;;;;;5.37;4.40;;;;;;;0.84;83.47;100425.70;1753618;82;21178;-62
2021/03/01 03:25:04;;;;;;;4.90;2.92;;;;;;;0.76;83.53;100428.00;1753670;81;21146;-62
2021/03/01 03:27:32;;;;;;;4.85;3.35;;;;;;;0.69;83.74;100427.11;1752219;80;21185;-63
2021/03/01 03:29:59;;;;;;;5.10;3.70;;;;;;;0.74;83.54;100435.92;1750967;82;21212;-63
2021/03/01 03:32:27;;;;;;;4.53;3.45;;;;;;;0.68;83.81;100440.68;1751590;81;21184;-63
2021/03/01 03:34:55;;;;;;;3.80;3.02;;;;;;;0.71;83.73;100442.47;1753596;82;21156;-62
2021/03/01 03:37:42;;;;;;;4.10;2.85;;;;;;;0.83;83.46;100434.76;1750788;82;21243;-64
2021/03/01 03:40:12;;;;;;;5.60;3.25;;;;;;;0.79;83.53;100438.33;1751235;82;21246;-63
2021/03/01 03:42:39;;;;;;;5.87;2.70;;;;;;;0.68;83.87;100435.32;1753080;80;21805;-63
2021/03/01 03:45:08;;;;;;;3.58;2.37;;;;;;;0.70;83.77;100436.81;1734496;81;21169;-64
2021/03/01 03:47:36;;;;;;;4.87;3.10;;;;;;;0.82;83.47;100437.11;1727659;82;21158;-63
2021/03/01 03:50:05;;;;;;;4.90;2.95;;;;;;;0.79;83.54;100439.67;1713730;83;21126;-64
2021/03/01 03:52:34;;;;;;;4.40;3.40;;;;;;;0.70;83.50;100442.17;1706044;83;21225;-63
2021/03/01 03:55:02;;;;;;;6.05;3.30;;;;;;;0.70;83.41;100443.52;1706954;83;21150;-64
2021/03/01 03:57:32;;;;;;;5.72;3.65;;;;;;;0.77;83.28;100450.27;1705186;83;21180;-64
2021/03/01 03:59:59;;;;;;;5.65;3.52;;;;;;;0.71;83.47;100452.39;1723450;83;21149;-64
2021/03/01 04:02:26;;;;;;;6.50;3.55;;;;;;;0.63;83.59;100455.17;1750480;82;21585;-64
2021/03/01 04:04:54;;;;;;;4.40;3.10;;;;;;;0.69;83.41;100455.75;1688917;85;21229;-63
2021/03/01 04:07:22;;;;;;;5.33;3.25;;;;;;;0.58;83.61;100461.09;1711713;83;21208;-63
2021/03/01 04:09:49;;;;;;;4.67;2.65;;;;;;;0.58;83.64;100464.28;1699939;83;21165;-64
2021/03/01 04:12:17;;;;;;;3.58;2.83;;;;;;;0.69;83.43;100461.11;1705402;84;21669;-64
2021/03/01 04:14:49;;;;;;;4.53;2.98;;;;;;;0.66;83.50;100464.17;1705430;83;21181;-63
2021/03/01 04:17:17;;;;;;;4.42;2.75;;;;;;;0.59;83.71;100464.61;1703950;83;21624;-61
2021/03/01 04:19:45;;;;;;;3.92;2.67;;;;;;;0.64;83.61;100465.69;1708588;83;21171;-62
2021/03/01 04:22:13;;;;;;;4.05;2.72;;;;;;;0.68;83.41;100466.14;1723351;82;21738;-63
2021/03/01 04:24:42;;;;;;;4.08;2.75;;;;;;;0.60;83.64;100469.80;1737616;82;21691;-64
2021/03/01 04:27:09;;;;;;;4.50;3.10;;;;;;;0.55;83.80;100472.70;1714993;83;21177;-62
2021/03/01 04:29:38;;;;;;;3.15;2.15;;;;;;;0.56;83.58;100473.03;1713941;83;21191;-64
2021/03/01 04:32:06;;;;;;;3.60;1.90;;;;;;;0.62;83.18;100466.91;1699852;83;21175;-64
2021/03/01 04:34:34;;;;;;;4.00;2.50;;;;;;;0.54;82.67;100473.20;1694218;85;21233;-63
2021/03/01 04:37:02;;;;;;;3.90;2.30;;;;;;;0.51;82.69;100469.57;1704652;83;21222;-63
2021/03/01 04:39:29;;;;;;;3.85;2.40;;;;;;;0.59;81.69;100477.50;1723057;82;21628;-64
2021/03/01 04:41:57;;;;;;;4.30;2.37;;;;;;;0.58;81.49;100479.02;1715596;82;21616;-64
2021/03/01 04:44:24;;;;;;;5.12;2.85;;;;;;;0.51;81.46;100491.00;1709943;83;21213;-62
2021/03/01 04:46:53;;;;;;;5.83;2.83;;;;;;;0.50;81.28;100490.17;1717890;83;21334;-64
2021/03/01 04:49:21;;;;;;;6.65;3.40;;;;;;;0.63;80.47;100489.50;1718787;82;21189;-64
2021/03/01 04:51:49;;;;;;;6.75;3.22;;;;;;;0.67;80.35;100487.28;1720565;83;21185;-64
2021/03/01 04:54:17;;;;;;;6.37;2.98;;;;;;;0.60;80.30;100491.73;1721003;82;21300;-64
2021/03/01 04:56:44;;;;;;;6.20;3.17;;;;;;;0.61;80.22;100492.87;1720522;83;21170;-62
2021/03/01 04:59:18;;;;;;;6.37;3.10;;;;;;;0.67;79.98;100506.03;1720847;82;21629;-62
2021/03/01 05:01:48;;;;;;;6.55;3.67;;;;;;;0.60;80.24;100507.81;1721534;82;21625;-62
2021/03/01 05:04:16;;;;;;;6.78;2.72;;;;;;;0.55;80.52;100519.08;1720756;83;22124;-63
2021/03/01 05:06:44;;;;;;;5.20;2.70;;;;;;;0.65;80.39;100522.29;1720574;83;21211;-63
2021/03/01 05:09:12;;;;;;;5.50;2.60;;;;;;;0.72;80.22;100531.73;1720508;83;21664;-62
2021/03/01 05:11:39;;;;;;;4.55;2.80;;;;;;;0.68;80.49;100533.13;1694055;83;21164;-62
2021/03/01 05:14:07;;;;;;;4.70;3.02;;;;;;;0.63;80.59;100544.94;1706915;83;21200;-63
2021/03/01 05:16:34;;;;;;;5.65;2.60;;;;;;;0.60;80.76;100554.70;1715609;83;21193;-63
2021/03/01 05:19:03;;;;;;;3.83;1.95;;;;;;;0.71;80.63;100554.22;1720495;83;21189;-63
2021/03/01 05:21:31;;;;;;;2.90;1.92;;;;;;;0.69;80.66;100555.73;1720796;82;21185;-62
2021/03/01 05:23:58;;;;;;;2.58;1.87;;;;;;;0.59;81.34;100560.56;1722601;82;21183;-64
2021/03/01 05:26:27;;;;;;;4.75;2.17;;;;;;;0.53;81.55;100569.86;1721162;82;21312;-62
2021/03/01 05:28:54;;;;;;;4.37;2.35;;;;;;;0.60;81.76;100562.73;1742419;82;21352;-63
2021/03/01 05:31:24;;;;;;;4.60;2.50;;;;;;;0.65;81.61;100565.67;1701069;83;21385;-63
2021/03/01 05:33:52;;;;;;;4.15;2.60;;;;;;;0.57;81.90;100576.52;1666934;85;21627;-63
2021/03/01 05:36:20;;;;;;;5.87;2.75;;;;;;;0.50;82.25;100573.72;1691700;85;21335;-63
2021/03/01 05:38:48;;;;;;;4.33;2.33;;;;;;;0.60;82.19;100572.12;1705619;83;21142;-63
2021/03/01 05:41:19;;;;;;;4.47;2.75;;;;;;;0.77;81.89;100576.23;1730715;82;21721;-63
2021/03/01 05:43:47;;;;;;;5.22;2.95;;;;;;;0.74;81.92;100577.96;1718103;83;21304;-63
2021/03/01 05:46:18;;;;;;;4.95;2.37;;;;;;;0.71;82.19;100585.04;1716023;83;21608;-64
2021/03/01 05:48:49;;;;;;;4.58;2.17;;;;;;;0.68;82.30;100594.27;1715591;82;21189;-64
2021/03/01 05:53:45;;;;;;;5.60;2.25;;;;;;;0.91;81.83;100601.67;1807316;79;23033;-60
2021/03/01 05:56:12;;;;;;;4.08;2.20;;;;;;;0.81;82.11;100609.70;1766789;80;21287;-60
2021/03/01 05:58:51;;;;;;;3.90;2.65;;;;;;;0.76;82.26;100622.31;1641421;85;21151;-60
2021/03/01 06:01:19;;;;;;;3.67;2.00;;;;;;;0.86;82.17;100634.06;1664567;85;21178;-59
2021/03/01 06:03:46;;;;;;;2.33;1.60;;;;;;;0.99;81.82;100632.38;1680642;85;21186;-59
2021/03/01 06:06:14;;;;;;;2.45;1.90;;;;;;;1.00;81.92;100642.59;1694512;84;21133;-61
2021/03/01 06:08:43;;;;;;;3.10;2.10;;;;;;;0.91;82.14;100641.89;1709390;84;21656;-61
2021/03/01 06:11:11;;;;;;;3.02;2.30;;;;;;;0.86;82.33;100643.45;1699382;82;21622;-61
2021/03/01 06:13:39;;;;;;;3.83;2.42;;;;;;;0.92;82.21;100646.21;1684882;84;21215;-60
2021/03/01 06:16:08;;;;;;;4.83;2.72;;;;;;;0.92;82.35;100656.94;1680780;84;21193;-60
2021/03/01 06:18:44;;;;;;;5.47;3.12;;;;;;;0.87;82.48;100666.56;1680467;85;21246;-58
2021/03/01 06:21:17;;;;;;;3.60;2.47;;;;;;;0.90;82.53;100667.03;1680107;84;21341;-59
2021/03/01 06:23:45;;;;;;;3.22;2.17;;;;;;;1.02;82.31;100673.25;1680344;85;21911;-60
2021/03/01 06:26:30;;;;;;;4.53;2.90;;;;;;;0.97;82.42;100675.98;1680251;84;21770;-59
2021/03/01 06:29:09;;;;;;;4.03;2.70;;;;;;;0.91;82.77;100683.44;1680203;85;21466;-59
2021/03/01 06:31:47;;;;;;;4.10;2.60;;;;;;;0.99;82.51;100690.56;1680314;84;21266;-59
2021/03/01 06:34:33;;;;;;;4.60;3.20;;;;;;;1.02;82.64;100693.37;1680230;85;21204;-60
2021/03/01 06:37:08;;;;;;;4.70;3.05;;;;;;;0.93;82.77;100693.96;1680377;84;21242;-59
2021/03/01 06:39:45;;;;;;;4.90;3.22;;;;;;;0.94;82.85;100700.49;1680305;85;21295;-59
2021/03/01 06:42:25;;;;;;;5.20;3.55;;;;;;;1.04;82.46;100701.53;1680494;84;21207;-60
2021/03/01 06:45:05;;;;;;;5.00;3.75;;;;;;;1.04;82.41;100706.06;1680451;85;21192;-61
2021/03/01 06:47:53;;;;;;;4.75;2.95;;;;;;;0.96;82.65;100706.48;1680240;84;21219;-61
2021/03/01 06:50:46;;;;;;;5.15;3.67;;;;;;;1.00;82.73;100719.02;1680417;84;21346;-58
2021/03/01 06:53:15;;;;;;;5.58;3.62;;;;;;;1.15;82.28;100717.16;1680196;85;21236;-60
2021/03/01 06:56:04;;;;;;;4.20;3.20;;;;;;;1.15;82.38;100721.68;1680270;84;21334;-59
2021/03/01 06:58:37;;;;;;;4.35;3.20;;;;;;;1.11;82.31;100731.11;1666540;85;21228;-59
2021/03/01 07:01:21;;;;;;;5.55;4.10;;;;;;;1.21;82.05;100739.70;1662260;85;21220;-60
2021/03/01 07:03:51;;;;;;;6.00;3.83;;;;;;;1.18;82.07;100743.59;1661463;85;21198;-60
2021/03/01 07:06:19;;;;;;;4.95;3.25;;;;;;;1.12;82.30;100738.98;1660120;85;21645;-59
2021/03/01 07:08:53;;;;;;;3.98;2.70;;;;;;;1.21;82.16;100739.20;1649582;86;21194;-59
2021/03/01 07:11:35;;;;;;;4.70;3.42;;;;;;;1.35;81.84;100753.09;1661794;85;21600;-60
2021/03/01 07:14:10;;;;;;;4.85;3.10;;;;;;;1.38;81.78;100745.20;1661628;85;21356;-59
2021/03/01 07:16:42;;;;;;;5.33;3.55;;;;;;;1.31;81.79;100743.75;1661636;85;21632;-59
2021/03/01 07:19:16;;;;;;;3.92;3.00;;;;;;;1.34;81.73;100748.77;1629763;88;21306;-59
2021/03/01 07:21:52;;;;;;;5.72;3.25;;;;;;;1.40;81.65;100752.55;1663738;85;21186;-60
2021/03/01 07:24:22;;;;;;;4.53;3.30;;;;;;;1.42;81.99;100749.98;1664022;86;21171;-59
2021/03/01 07:26:51;;;;;;;5.85;3.58;;;;;;;1.47;81.99;100765.02;1664042;85;21324;-59
2021/03/01 07:29:20;;;;;;;4.37;2.87;;;;;;;1.55;81.58;100758.72;1663996;86;21194;-60
2021/03/01 07:32:06;;;;;;;4.67;3.15;;;;;;;1.64;81.25;100754.05;1660108;85;21248;-59
2021/03/01 07:34:35;;;;;;;4.22;3.35;;;;;;;1.52;81.35;100759.10;1664077;86;21191;-59
2021/03/01 07:37:04;;;;;;;5.17;3.45;;;;;;;1.63;81.24;100755.91;1663950;85;21551;-59
2021/03/01 07:39:32;;;;;;;4.35;3.12;;;;;;;1.67;81.24;100757.70;1662333;85;21184;-60
2021/03/01 07:42:00;;;;;;;5.10;3.25;;;;;;;1.65;80.94;100758.41;1663910;85;21232;-59
2021/03/01 07:44:32;;;;;;;3.60;2.75;;;;;;;1.73;80.91;100756.45;1658189;86;21167;-59
2021/03/01 07:47:01;;;;;;;4.35;2.77;;;;;;;1.72;80.57;100741.36;1663847;85;21198;-59
2021/03/01 07:49:47;;;;;;;4.42;3.20;;;;;;;1.82;80.54;100759.33;1664094;86;21211;-59
2021/03/01 07:52:30;;;;;;;4.15;2.90;;;;;;;1.79;80.66;100757.54;1664041;85;21653;-58
2021/03/01 07:55:03;;;;;;;5.80;3.00;;;;;;;1.93;80.00;100760.17;1664206;86;21300;-60
2021/03/01 07:57:30;;;;;;;4.08;3.10;;;;;;;2.00;79.72;100762.41;1663885;85;21224;-59
2021/03/01 08:00:00;;;;;;;3.80;3.00;;;;;;;1.94;79.71;100763.19;1664009;86;21141;-59
2021/03/01 08:02:33;;;;;;;4.72;3.12;;;;;;;2.00;79.51;100773.66;1669905;85;21208;-60
2021/03/01 08:08:05;;;;;;;4.40;2.98;;;;;;;1.99;79.24;100780.89;1609759;89;21236;-60
2021/03/01 08:10:38;;;;;;;4.80;2.58;;;;;;;1.93;79.56;100780.82;1642426;86;21223;-60
2021/03/01 08:13:07;;;;;;;4.30;3.00;;;;;;;1.99;79.28;100788.11;1635738;88;21242;-59
2021/03/01 08:15:40;;;;;;;4.00;2.83;;;;;;;1.96;79.12;100791.17;1635442;86;21240;-59
2021/03/01 08:18:14;;;;;;;4.00;2.75;;;;;;;1.94;79.45;100787.86;1814338;78;22810;-60
2021/03/01 08:20:54;;;;;;;3.45;2.70;;;;;;;1.97;79.65;100787.48;1781720;80;21344;-63
2021/03/01 08:23:29;;;;;;;4.72;3.15;;;;;;;2.14;79.34;100792.08;1757496;81;21681;-63
2021/03/01 08:25:58;;;;;;;3.47;2.22;;;;;;;2.22;78.61;100794.15;1732844;81;21648;-62
2021/03/01 08:28:32;;;;;;;3.62;2.47;;;;;;;2.20;78.43;100793.48;1727340;83;21589;-62
2021/03/01 08:31:12;;;;;;;4.10;2.45;;;;;;;2.17;78.62;100791.70;1727257;83;21169;-62
2021/03/01 08:33:39;;;;;;;5.25;2.70;;;;;;;2.31;78.25;100803.73;1727422;83;21129;-63
2021/03/01 08:36:17;;;;;;;4.12;2.75;;;;;;;2.49;77.45;100798.73;1723045;83;21184;-62
2021/03/01 08:38:49;;;;;;;3.65;2.52;;;;;;;2.47;76.96;100803.48;1727285;83;21204;-62
2021/03/01 08:41:33;;;;;;;4.45;3.00;;;;;;;2.38;77.54;100808.65;1727315;83;21372;-62
2021/03/01 08:44:03;;;;;;;4.78;3.02;;;;;;;2.40;77.57;100809.31;1726833;83;21220;-62
2021/03/01 08:46:30;;;;;;;3.87;2.52;;;;;;;2.53;76.88;100807.23;1727316;83;21169;-62
2021/03/01 08:48:59;;;;;;;4.53;3.10;;;;;;;2.60;76.59;100807.28;1726990;83;21632;-62
2021/03/01 08:51:27;;;;;;;4.83;3.35;;;;;;;2.47;76.42;100823.64;1727264;83;21592;-63
2021/03/01 08:53:55;;;;;;;4.37;3.22;;;;;;;2.42;76.40;100819.34;1727327;83;21149;-62
2021/03/01 08:56:26;;;;;;;4.60;3.15;;;;;;;2.40;76.31;100821.91;1727364;83;21593;-63
2021/03/01 09:01:30;;;;;;;4.67;3.05;;;;;;;2.36;76.71;100817.43;1749173;79;28387;-63
2021/03/01 09:03:57;;;;;;;4.10;2.75;;;;;;;2.57;76.05;100833.22;1722759;83;21300;-63
2021/03/01 09:06:30;;;;;;;4.87;3.45;;;;;;;2.72;75.72;100836.67;1718989;82;21684;-64
2021/03/01 09:08:58;;;;;;;5.80;3.35;;;;;;;2.56;75.53;100840.95;1722767;83;21146;-63
2021/03/01 09:11:29;;;;;;;5.62;2.95;;;;;;;2.48;75.89;100838.72;1722707;82;21203;-63
2021/03/01 09:14:01;;;;;;;4.83;3.33;;;;;;;2.64;75.54;100845.70;1722889;83;21605;-63
2021/03/01 09:16:33;;;;;;;4.85;3.17;;;;;;;2.66;75.13;100848.20;1722751;82;21173;-64
2021/03/01 09:19:08;;;;;;;5.25;3.55;;;;;;;2.68;75.75;100846.98;1722788;83;21578;-64
2021/03/01 09:21:40;;;;;;;5.00;3.40;;;;;;;2.75;75.83;100851.06;1722669;82;21592;-64
2021/03/01 09:24:12;;;;;;;4.65;3.17;;;;;;;2.96;74.85;100849.69;1695014;83;21161;-64
2021/03/01 09:26:47;;;;;;;5.85;3.35;;;;;;;3.05;74.25;100858.45;1722720;82;21298;-62
2021/03/01 09:29:20;;;;;;;6.65;3.67;;;;;;;2.99;73.92;100866.27;1722706;83;21609;-62
2021/03/01 09:31:49;;;;;;;5.10;3.17;;;;;;;2.96;74.34;100863.97;1722861;82;21191;-62
2021/03/01 09:34:18;;;;;;;4.53;2.95;;;;;;;2.96;74.20;100872.55;1722786;83;21275;-62
2021/03/01 09:36:48;;;;;;;5.00;3.55;;;;;;;3.07;74.12;100871.19;1718745;82;21609;-62
2021/03/01 09:39:22;;;;;;;4.42;3.25;;;;;;;3.17;73.79;100873.84;1722772;83;21165;-61
2021/03/01 09:41:49;;;;;;;4.58;3.52;;;;;;;3.14;73.87;100873.41;1722657;82;21725;-62
2021/03/01 09:44:28;;;;;;;5.03;3.47;;;;;;;3.03;73.65;100868.05;1722684;82;21600;-63
2021/03/01 09:46:57;;;;;;;4.35;3.05;;;;;;;3.07;73.53;100870.67;1722736;82;21727;-63
2021/03/01 09:49:26;;;;;;;5.30;3.27;;;;;;;3.26;73.60;100877.23;1722875;83;21616;-63
2021/03/01 09:51:53;;;;;;;4.97;3.37;;;;;;;3.31;73.04;100882.33;1722648;82;21157;-63
2021/03/01 09:54:24;;;;;;;4.58;3.50;;;;;;;3.34;73.00;100881.93;1721719;83;21157;-63
2021/03/01 09:56:55;;;;;;;5.05;3.42;;;;;;;3.38;72.48;100884.55;1649679;87;21367;-63
2021/03/01 09:59:36;;;;;;;3.98;2.95;;;;;;;3.47;72.40;100882.00;1654690;87;21216;-63
2021/03/01 10:02:14;;;;;;;5.08;3.35;;;;;;;3.33;71.58;100882.14;1654871;87;21216;-63
2021/03/01 10:04:42;;;;;;;5.15;3.55;;;;;;;3.20;72.24;100882.87;1654599;87;21421;-62
2021/03/01 10:07:19;;;;;;;5.80;3.60;;;;;;;3.17;72.30;100876.53;1650891;87;21762;-62
2021/03/01 10:09:48;;;;;;;6.67;3.83;;;;;;;3.21;72.57;100873.77;1654588;87;21208;-63
2021/03/01 10:12:15;;;;;;;10.35;5.45;;;;;;;3.18;72.65;100874.17;1654232;87;21304;-63
2021/03/01 10:14:44;;;;;;;7.50;4.42;;;;;;;3.16;72.80;100868.14;1654183;87;21358;-63
2021/03/01 10:17:28;;;;;;;6.62;3.80;;;;;;;3.24;72.92;100873.38;1654121;87;21438;-62
2021/03/01 10:20:10;;;;;;;5.08;3.70;;;;;;;3.55;72.65;100872.11;1654090;87;21221;-62
2021/03/01 10:23:06;;;;;;;5.67;3.87;;;;;;;3.74;70.91;100869.53;1779802;79;22977;-62
2021/03/01 10:25:38;;;;;;;5.03;3.30;;;;;;;3.67;70.58;100867.33;1748613;82;21541;-61
2021/03/01 10:28:27;;;;;;;5.10;3.58;;;;;;;3.67;70.87;100860.59;1752646;81;21153;-62
2021/03/01 10:31:11;;;;;;;3.98;3.05;;;;;;;3.78;70.53;100861.38;1752656;82;21181;-61
2021/03/01 10:34:05;;;;;;;4.95;3.22;;;;;;;3.99;69.58;100857.73;1752683;81;21557;-62
2021/03/01 10:36:35;;;;;;;5.75;3.87;;;;;;;4.19;69.59;100859.95;1752710;82;21319;-61
2021/03/01 10:39:18;;;;;;;5.70;3.70;;;;;;;4.23;68.87;100859.88;1752767;81;21545;-61
2021/03/01 10:41:48;;;;;;;4.58;3.37;;;;;;;4.24;68.23;100860.19;1752575;82;21523;-61
2021/03/01 10:44:16;;;;;;;4.67;3.40;;;;;;;4.17;68.24;100863.90;1752881;81;21688;-60
2021/03/01 10:46:48;;;;;;;4.22;3.12;;;;;;;4.12;68.46;100859.11;1752745;82;21692;-61
2021/03/01 10:49:25;;;;;;;3.83;2.77;;;;;;;4.22;67.75;100866.28;1752711;82;21279;-61
2021/03/01 10:51:56;;;;;;;15.85;4.12;;;;;;;4.11;68.54;100866.87;1752588;82;21613;-62
2021/03/01 10:54:24;;;;;;;4.20;2.95;;;;;;;4.15;68.82;100868.64;1752722;82;21173;-62
2021/03/01 10:56:52;;;;;;;4.05;2.98;;;;;;;4.06;68.50;100874.75;1752368;82;21173;-63
2021/03/01 10:59:19;;;;;;;4.00;2.80;;;;;;;4.04;69.09;100875.45;1752601;82;21165;-62
2021/03/01 11:01:47;;;;;;;3.15;2.08;;;;;;;4.09;69.31;100881.08;1752517;82;21600;-62
2021/03/01 11:04:16;;;;;;;4.00;2.47;;;;;;;4.15;69.14;100878.91;1752710;82;21669;-61
2021/03/01 11:06:47;;;;;;;3.87;2.60;;;;;;;4.13;69.14;100878.30;1752584;82;21299;-62
2021/03/01 11:09:15;;;;;;;3.25;2.10;;;;;;;4.06;69.45;100877.44;1752697;82;21114;-63
2021/03/01 11:11:42;;;;;;;3.62;2.50;;;;;;;3.94;69.19;100879.88;1752534;82;21315;-62
2021/03/01 11:14:11;;;;;;;2.60;2.12;;;;;;;3.83;69.75;100887.69;1752634;82;21354;-64
2021/03/01 11:16:39;;;;;;;3.47;2.42;;;;;;;3.80;69.61;100883.54;1752579;81;21153;-63
2021/03/01 11:19:09;;;;;;;2.98;2.10;;;;;;;3.86;69.91;100884.08;1752580;81;21138;-63
2021/03/01 11:21:37;;;;;;;13.78;3.40;;;;;;;3.86;69.82;100888.12;1752652;81;21201;-62
2021/03/01 11:24:06;;;;;;;3.20;2.22;;;;;;;3.82;69.59;100881.50;1753449;82;21161;-62
2021/03/01 11:26:35;;;;;;;3.45;2.30;;;;;;;3.76;69.53;100878.74;1753432;82;21640;-63
2021/03/01 11:29:04;;;;;;;3.40;2.10;;;;;;;3.70;69.83;100876.86;1753500;82;21181;-62
2021/03/01 11:31:33;;;;;;;3.55;1.80;;;;;;;3.75;69.54;100886.02;1753427;82;21596;-63
2021/03/01 11:34:03;;;;;;;3.22;2.33;;;;;;;3.81;69.53;100885.72;1752771;82;21565;-63
2021/03/01 11:36:31;;;;;;;3.37;2.30;;;;;;;3.69;69.83;100887.30;1741372;82;21191;-59
2021/03/01 11:38:58;;;;;;;3.55;2.77;;;;;;;3.66;70.33;100882.32;1741320;82;21652;-58
2021/03/01 11:41:26;;;;;;;3.62;2.17;;;;;;;3.65;70.52;100880.14;1735072;82;21110;-59
2021/03/01 11:43:57;;;;;;;3.30;2.00;;;;;;;3.70;70.08;100880.90;1752920;82;21169;-58
2021/03/01 11:46:24;;;;;;;3.33;1.80;;;;;;;3.80;70.16;100890.78;1742477;82;21311;-59
2021/03/01 11:48:52;;;;;;;4.33;2.58;;;;;;;3.76;69.92;100884.97;1741439;82;21522;-58
2021/03/01 11:51:19;;;;;;;3.62;2.05;;;;;;;3.71;69.81;100885.27;1752840;82;21315;-60
2021/03/01 11:53:47;;;;;;;3.95;1.98;;;;;;;3.71;70.12;100886.09;1722996;82;21156;-59
2021/03/01 11:56:14;;;;;;;2.80;1.87;;;;;;;3.80;69.51;100885.40;1722947;83;21252;-59
2021/03/01 11:58:43;;;;;;;2.95;2.00;;;;;;;3.85;69.50;100891.03;1737498;82;21168;-60